createdAt,value
2018-05-12T00:00:08.377Z,15.19
2018-05-12T00:02:35.836Z,14.90
2018-05-12T00:05:03.286Z,14.99
2018-05-12T00:07:31.367Z,14.70
2018-05-12T00:09:58.821Z,14.74
2018-05-12T00:12:26.273Z,15.08
2018-05-12T00:14:53.773Z,15.33
2018-05-12T00:17:21.180Z,15.00
2018-05-12T00:19:48.634Z,14.74
2018-05-12T00:22:16.093Z,14.89
2018-05-12T00:24:43.546Z,14.53
2018-05-12T00:27:10.994Z,14.50
2018-05-12T00:29:38.444Z,14.60
2018-05-12T00:32:05.899Z,14.54
2018-05-12T00:34:33.343Z,14.24
2018-05-12T00:37:00.794Z,14.33
2018-05-12T00:39:28.266Z,14.20
2018-05-12T00:41:55.710Z,13.93
2018-05-12T00:44:23.159Z,14.35
2018-05-12T00:46:50.637Z,14.17
2018-05-12T00:49:18.087Z,13.93
2018-05-12T00:51:45.553Z,14.01
2018-05-12T00:54:13.021Z,13.93
2018-05-12T00:56:40.482Z,14.05
2018-05-12T00:59:07.972Z,13.90
2018-05-12T01:01:35.429Z,13.83
2018-05-12T01:04:02.970Z,13.89
2018-05-12T01:06:30.406Z,13.79
2018-05-12T01:08:57.865Z,13.91
2018-05-12T01:11:25.329Z,14.05
2018-05-12T01:13:52.792Z,13.97
2018-05-12T01:16:20.246Z,14.03
2018-05-12T01:18:47.722Z,13.77
2018-05-12T01:21:15.186Z,14.00
2018-05-12T01:23:42.634Z,13.81
2018-05-12T01:26:10.090Z,13.84
2018-05-12T01:28:37.558Z,13.50
2018-05-12T01:31:05.006Z,13.73
2018-05-12T01:33:32.454Z,13.62
2018-05-12T01:35:59.913Z,13.43
2018-05-12T01:38:27.353Z,13.48
2018-05-12T01:40:54.788Z,13.41
2018-05-12T01:43:22.260Z,13.44
2018-05-12T01:45:49.720Z,13.33
2018-05-12T01:48:17.265Z,13.67
2018-05-12T01:50:44.714Z,13.74
2018-05-12T01:53:12.145Z,13.60
2018-05-12T01:55:39.593Z,14.00
2018-05-12T01:58:07.033Z,14.04
2018-05-12T02:00:34.506Z,14.10
2018-05-12T02:03:01.946Z,14.10
2018-05-12T02:05:29.398Z,13.84
2018-05-12T02:07:56.864Z,13.63
2018-05-12T02:10:24.319Z,13.66
2018-05-12T02:12:51.819Z,13.91
2018-05-12T02:15:19.273Z,13.81
2018-05-12T02:17:46.741Z,13.90
2018-05-12T02:20:14.195Z,13.79
2018-05-12T02:22:41.651Z,13.76
2018-05-12T02:25:09.110Z,13.78
2018-05-12T02:27:36.577Z,14.15
2018-05-12T02:30:04.034Z,13.83
2018-05-12T02:32:31.474Z,13.95
2018-05-12T02:34:58.954Z,14.26
2018-05-12T02:37:26.404Z,14.43
2018-05-12T02:39:53.851Z,13.39
2018-05-12T02:42:21.315Z,13.45
2018-05-12T02:44:48.765Z,13.60
2018-05-12T02:47:16.238Z,13.80
2018-05-12T02:49:43.692Z,13.73
2018-05-12T02:52:11.154Z,13.81
2018-05-12T02:54:38.609Z,13.37
2018-05-12T02:57:06.061Z,13.33
2018-05-12T02:59:33.536Z,13.22
2018-05-12T03:02:01.001Z,13.46
2018-05-12T03:04:28.535Z,13.57
2018-05-12T03:06:55.987Z,13.30
2018-05-12T03:09:23.461Z,13.49
2018-05-12T03:11:50.938Z,13.23
2018-05-12T03:14:18.390Z,13.42
2018-05-12T03:16:45.837Z,13.51
2018-05-12T03:19:13.319Z,13.07
2018-05-12T03:21:40.767Z,13.22
2018-05-12T03:24:08.204Z,13.37
2018-05-12T03:26:35.675Z,13.31
2018-05-12T03:29:03.178Z,13.10
2018-05-12T03:31:30.635Z,13.47
2018-05-12T03:33:58.114Z,13.16
2018-05-12T03:36:25.630Z,13.31
2018-05-12T03:38:53.171Z,13.56
2018-05-12T03:41:20.591Z,13.64
2018-05-12T03:43:48.046Z,13.69
2018-05-12T03:46:15.498Z,13.25
2018-05-12T03:48:42.974Z,12.74
2018-05-12T03:51:10.435Z,12.62
2018-05-12T03:53:37.870Z,12.58
2018-05-12T03:56:05.345Z,12.24
2018-05-12T03:58:32.803Z,12.77
2018-05-12T04:01:00.406Z,12.72
2018-05-12T04:03:27.861Z,13.08
2018-05-12T04:06:07.165Z,12.80
2018-05-12T04:08:47.350Z,13.16
2018-05-12T04:11:26.635Z,12.82
2018-05-12T04:13:54.108Z,13.10
2018-05-12T04:16:21.564Z,13.13
2018-05-12T04:18:49.037Z,13.04
2018-05-12T04:21:16.479Z,12.89
2018-05-12T04:23:43.948Z,12.98
2018-05-12T04:26:11.395Z,13.04
2018-05-12T04:28:38.882Z,12.90
2018-05-12T04:31:06.354Z,12.87
2018-05-12T04:33:33.824Z,13.01
2018-05-12T04:36:01.291Z,13.66
2018-05-12T04:38:28.785Z,13.83
2018-05-12T04:40:56.222Z,13.56
2018-05-12T04:43:23.694Z,14.01
2018-05-12T04:45:51.169Z,13.91
2018-05-12T04:48:18.696Z,14.65
2018-05-12T04:50:46.217Z,14.24
2018-05-12T04:53:13.671Z,14.38
2018-05-12T04:55:41.130Z,14.61
2018-05-12T04:58:08.597Z,15.16
2018-05-12T05:00:36.065Z,15.15
2018-05-12T05:03:03.535Z,15.26
2018-05-12T05:05:31.014Z,14.82
2018-05-12T05:07:58.541Z,14.95
2018-05-12T05:10:26.010Z,15.00
2018-05-12T05:12:53.461Z,15.51
2018-05-12T05:15:21.111Z,15.34
2018-05-12T05:17:48.496Z,15.52
2018-05-12T05:20:15.942Z,15.28
2018-05-12T05:22:43.393Z,15.03
2018-05-12T05:25:10.849Z,15.21
2018-05-12T05:27:38.338Z,15.88
2018-05-12T05:30:05.810Z,15.59
2018-05-12T05:32:33.275Z,15.73
2018-05-12T05:35:00.764Z,15.69
2018-05-12T05:37:28.224Z,15.89
2018-05-12T05:39:55.665Z,15.58
2018-05-12T05:42:23.100Z,16.27
2018-05-12T05:44:50.547Z,16.36
2018-05-12T05:47:18.233Z,16.44
2018-05-12T05:49:45.732Z,16.69
2018-05-12T05:52:13.209Z,16.57
2018-05-12T05:54:40.728Z,16.47
2018-05-12T05:57:08.210Z,16.42
2018-05-12T05:59:35.690Z,16.55
2018-05-12T06:02:03.128Z,16.90
2018-05-12T06:04:30.595Z,17.07
2018-05-12T06:06:58.068Z,16.98
2018-05-12T06:09:25.498Z,17.07
2018-05-12T06:11:53.178Z,17.78
2018-05-12T06:14:20.752Z,17.53
2018-05-12T06:16:48.259Z,17.77
2018-05-12T06:19:15.722Z,17.90
2018-05-12T06:21:43.203Z,18.06
2018-05-12T06:24:10.659Z,18.22
2018-05-12T06:26:38.125Z,18.36
2018-05-12T06:29:05.572Z,18.20
2018-05-12T06:31:33.022Z,18.28
2018-05-12T06:34:00.511Z,18.54
2018-05-12T06:36:27.968Z,18.39
2018-05-12T06:38:55.464Z,18.82
2018-05-12T06:41:22.934Z,19.17
2018-05-12T06:43:50.419Z,19.23
2018-05-12T06:46:17.890Z,19.58
2018-05-12T06:48:45.356Z,19.82
2018-05-12T06:51:12.828Z,19.98
2018-05-12T06:53:40.281Z,19.72
2018-05-12T06:56:07.749Z,19.52
2018-05-12T06:58:35.241Z,19.60
2018-05-12T07:01:02.696Z,19.64
2018-05-12T07:03:30.165Z,19.84
2018-05-12T07:05:57.621Z,19.81
2018-05-12T07:08:25.074Z,19.79
2018-05-12T07:10:52.533Z,20.41
2018-05-12T07:13:19.998Z,20.28
2018-05-12T07:15:47.444Z,20.79
2018-05-12T07:18:14.910Z,20.44
2018-05-12T07:20:42.353Z,20.76
2018-05-12T07:23:09.811Z,21.37
2018-05-12T07:25:37.327Z,20.87
2018-05-12T07:28:04.835Z,21.16
2018-05-12T07:30:32.281Z,21.19
2018-05-12T07:32:59.756Z,21.61
2018-05-12T07:35:27.248Z,21.36
2018-05-12T07:37:54.689Z,21.67
2018-05-12T07:40:22.165Z,21.72
2018-05-12T07:42:49.615Z,21.76
2018-05-12T07:45:17.079Z,21.37
2018-05-12T07:47:44.530Z,21.44
2018-05-12T07:50:11.968Z,21.84
2018-05-12T07:52:39.418Z,22.13
2018-05-12T07:55:06.882Z,22.34
2018-05-12T07:57:34.350Z,22.45
2018-05-12T08:00:01.807Z,22.43
2018-05-12T08:02:29.287Z,22.55
2018-05-12T08:04:56.747Z,23.03
2018-05-12T08:07:24.231Z,23.28
2018-05-12T08:09:51.718Z,23.27
2018-05-12T08:12:19.249Z,23.23
2018-05-12T08:14:46.721Z,23.65
2018-05-12T08:17:14.201Z,23.94
2018-05-12T08:19:41.647Z,23.52
2018-05-12T08:22:09.102Z,23.58
2018-05-12T08:24:36.629Z,23.80
2018-05-12T08:27:04.085Z,23.60
2018-05-12T08:29:31.527Z,23.55
2018-05-12T08:31:59.017Z,24.14
2018-05-12T08:34:26.466Z,24.15
2018-05-12T08:36:53.915Z,24.05
2018-05-12T08:39:21.412Z,24.64
2018-05-12T08:41:48.857Z,24.79
2018-05-12T08:44:16.408Z,23.86
2018-05-12T08:46:43.909Z,24.00
2018-05-12T08:51:45.172Z,24.79
2018-05-12T08:54:12.634Z,25.15
2018-05-12T08:56:40.156Z,25.27
2018-05-12T08:59:07.614Z,25.06
2018-05-12T09:01:35.060Z,25.66
2018-05-12T09:04:02.506Z,25.40
2018-05-12T09:06:29.956Z,25.48
2018-05-12T09:08:57.417Z,25.74
2018-05-12T09:11:24.989Z,25.70
2018-05-12T09:13:52.442Z,25.74
2018-05-12T09:16:19.906Z,25.18
2018-05-12T09:18:47.417Z,26.07
2018-05-12T09:21:14.869Z,26.07
2018-05-12T09:23:42.365Z,26.39
2018-05-12T09:26:09.907Z,26.22
2018-05-12T09:28:37.382Z,26.47
2018-05-12T09:31:04.850Z,26.43
2018-05-12T09:33:32.289Z,26.65
2018-05-12T09:35:59.746Z,26.07
2018-05-12T09:38:27.193Z,26.46
2018-05-12T09:40:54.650Z,26.26
2018-05-12T09:43:22.121Z,26.49
2018-05-12T09:45:49.639Z,26.45
2018-05-12T09:48:17.166Z,26.66
2018-05-12T09:50:44.610Z,26.97
2018-05-12T09:53:12.064Z,27.00
2018-05-12T09:55:39.522Z,26.85
2018-05-12T09:58:06.977Z,27.30
2018-05-12T10:00:34.425Z,27.42
2018-05-12T10:03:01.887Z,27.31
2018-05-12T10:05:29.363Z,27.58
2018-05-12T10:07:58.662Z,27.93
2018-05-12T10:10:26.164Z,28.29
2018-05-12T10:12:53.694Z,28.06
2018-05-12T10:15:21.121Z,28.31
2018-05-12T10:17:48.553Z,28.54
2018-05-12T10:20:16.004Z,28.42
2018-05-12T10:22:43.481Z,27.97
2018-05-12T10:25:10.955Z,28.01
2018-05-12T10:27:38.389Z,28.43
2018-05-12T10:30:05.875Z,28.06
2018-05-12T10:32:33.295Z,28.82
2018-05-12T10:35:00.748Z,29.14
2018-05-12T10:37:28.210Z,29.21
2018-05-12T10:39:55.673Z,29.02
2018-05-12T10:42:23.158Z,28.56
2018-05-12T10:44:50.659Z,28.88
2018-05-12T10:47:18.115Z,28.76
2018-05-12T10:49:45.567Z,28.74
2018-05-12T10:52:13.034Z,27.98
2018-05-12T10:54:40.476Z,28.78
2018-05-12T10:57:07.943Z,28.31
2018-05-12T10:59:35.398Z,28.84
2018-05-12T11:02:02.928Z,29.00
2018-05-12T11:04:30.309Z,28.87
2018-05-12T11:06:57.755Z,27.82
2018-05-12T11:09:25.215Z,28.79
2018-05-12T11:11:52.658Z,29.18
2018-05-12T11:14:20.110Z,28.77
2018-05-12T11:16:47.575Z,29.31
2018-05-12T11:19:15.010Z,29.68
2018-05-12T11:21:42.471Z,29.04
2018-05-12T11:24:09.914Z,29.84
2018-05-12T11:26:37.570Z,30.83
2018-05-12T11:29:05.058Z,31.59
2018-05-12T11:31:32.533Z,31.75
2018-05-12T11:34:00.010Z,32.22
2018-05-12T11:36:27.512Z,33.73
2018-05-12T11:38:54.954Z,34.70
2018-05-12T11:41:22.409Z,34.93
2018-05-12T11:43:49.911Z,35.03
2018-05-12T11:46:17.374Z,35.38
2018-05-12T11:48:44.850Z,35.59
2018-05-12T11:51:12.298Z,34.35
2018-05-12T11:53:39.738Z,33.18
2018-05-12T11:56:07.222Z,31.08
2018-05-12T11:58:34.688Z,30.79
2018-05-12T12:01:02.157Z,30.68
2018-05-12T12:03:29.622Z,33.18
2018-05-12T12:05:57.077Z,35.92
2018-05-12T12:08:24.525Z,37.94
2018-05-12T12:10:51.997Z,39.07
2018-05-12T12:13:19.450Z,38.76
2018-05-12T12:15:46.889Z,37.55
2018-05-12T12:18:14.430Z,38.61
2018-05-12T12:20:41.883Z,39.99
2018-05-12T12:23:09.328Z,38.46
2018-05-12T12:25:36.775Z,39.02
2018-05-12T12:28:04.218Z,37.64
2018-05-12T12:30:31.682Z,39.46
2018-05-12T12:32:59.127Z,41.69
2018-05-12T12:35:26.601Z,44.71
2018-05-12T12:37:54.046Z,44.01
2018-05-12T12:40:21.483Z,45.52
2018-05-12T12:42:48.921Z,45.47
2018-05-12T12:45:16.385Z,44.09
2018-05-12T12:47:43.853Z,45.20
2018-05-12T12:50:11.291Z,46.88
2018-05-12T12:52:38.740Z,44.48
2018-05-12T12:55:06.179Z,47.77
2018-05-12T12:57:33.694Z,47.25
2018-05-12T13:00:01.154Z,45.28
2018-05-12T13:02:28.648Z,47.16
2018-05-12T13:04:56.183Z,47.36
2018-05-12T13:07:23.553Z,48.30
2018-05-12T13:09:51.017Z,48.04
2018-05-12T13:12:18.503Z,49.01
2018-05-12T13:14:45.947Z,49.10
2018-05-12T13:17:13.376Z,48.27
2018-05-12T13:19:40.830Z,48.77
2018-05-12T13:22:08.281Z,47.42
2018-05-12T13:24:35.725Z,47.30
2018-05-12T13:27:03.161Z,48.26
2018-05-12T13:29:30.597Z,48.40
2018-05-12T13:31:58.029Z,45.52
2018-05-12T13:34:25.466Z,45.18
2018-05-12T13:36:52.901Z,42.34
2018-05-12T13:39:20.332Z,39.00
2018-05-12T13:41:47.980Z,38.96
2018-05-12T13:44:15.436Z,37.73
2018-05-12T13:46:42.978Z,37.02
2018-05-12T13:49:10.440Z,36.02
2018-05-12T13:51:37.885Z,37.19
2018-05-12T13:54:05.335Z,39.47
2018-05-12T13:56:32.781Z,41.74
2018-05-12T13:59:00.222Z,41.28
2018-05-12T14:01:27.818Z,39.77
2018-05-12T14:03:55.286Z,39.41
2018-05-12T14:06:22.846Z,40.96
2018-05-12T14:08:50.373Z,39.58
2018-05-12T14:11:18.667Z,41.99
2018-05-12T14:13:46.131Z,44.04
2018-05-12T14:16:13.885Z,45.10
2018-05-12T14:18:41.262Z,45.92
2018-05-12T14:21:08.725Z,47.31
2018-05-12T14:23:36.168Z,49.31
2018-05-12T14:26:03.606Z,50.00
2018-05-12T14:28:31.046Z,49.63
2018-05-12T14:30:58.494Z,47.13
2018-05-12T14:33:26.180Z,47.02
2018-05-12T14:35:53.624Z,46.14
2018-05-12T14:38:21.057Z,46.10
2018-05-12T14:40:48.521Z,44.97
2018-05-12T14:43:16.010Z,48.12
2018-05-12T14:45:43.451Z,46.48
2018-05-12T14:48:10.884Z,43.25
2018-05-12T14:50:38.409Z,42.75
2018-05-12T14:53:05.861Z,42.16
2018-05-12T14:55:33.444Z,38.85
2018-05-12T14:58:00.890Z,37.96
2018-05-12T15:00:28.378Z,38.90
2018-05-12T15:02:55.826Z,37.96
2018-05-12T15:05:23.266Z,37.09
2018-05-12T15:07:50.782Z,37.11
2018-05-12T15:10:18.258Z,39.20
2018-05-12T15:12:45.707Z,40.02
2018-05-12T15:15:13.163Z,37.56
2018-05-12T15:17:40.605Z,35.97
2018-05-12T15:20:08.048Z,35.91
2018-05-12T15:22:35.505Z,35.49
2018-05-12T15:25:02.975Z,33.39
2018-05-12T15:27:30.435Z,33.36
2018-05-12T15:29:57.926Z,33.40
2018-05-12T15:32:25.441Z,33.23
2018-05-12T15:34:52.905Z,33.62
2018-05-12T15:37:20.355Z,34.45
2018-05-12T15:39:47.808Z,35.70
2018-05-12T15:42:15.363Z,35.69
2018-05-12T15:44:42.863Z,35.06
2018-05-12T15:47:10.405Z,36.18
2018-05-12T15:49:37.861Z,38.38
2018-05-12T15:52:05.322Z,39.86
2018-05-12T15:54:32.775Z,40.13
2018-05-12T15:57:00.382Z,40.17
2018-05-12T15:59:27.948Z,40.03
2018-05-12T16:01:55.397Z,40.59
2018-05-12T16:04:22.863Z,40.05
2018-05-12T16:06:50.300Z,39.14
2018-05-12T16:09:17.805Z,37.41
2018-05-12T16:11:45.237Z,36.96
2018-05-12T16:14:12.689Z,36.22
2018-05-12T16:16:40.143Z,34.28
2018-05-12T16:19:07.588Z,34.82
2018-05-12T16:21:35.051Z,34.51
2018-05-12T16:24:02.500Z,33.61
2018-05-12T16:26:29.959Z,33.21
2018-05-12T16:28:57.440Z,33.05
2018-05-12T16:31:24.951Z,33.10
2018-05-12T16:33:52.482Z,32.97
2018-05-12T16:36:19.920Z,33.52
2018-05-12T16:38:47.383Z,33.58
2018-05-12T16:41:14.840Z,33.78
2018-05-12T16:43:42.302Z,34.50
2018-05-12T16:46:09.755Z,34.12
2018-05-12T16:48:37.200Z,34.05
2018-05-12T16:51:04.866Z,33.87
2018-05-12T16:53:32.291Z,33.40
2018-05-12T16:55:59.727Z,34.02
2018-05-12T16:58:27.273Z,34.28
2018-05-12T17:00:54.739Z,34.25
2018-05-12T17:03:22.174Z,34.11
2018-05-12T17:05:49.623Z,33.68
2018-05-12T17:08:17.071Z,33.85
2018-05-12T17:10:44.581Z,33.50
2018-05-12T17:13:12.096Z,32.90
2018-05-12T17:15:39.468Z,32.98
2018-05-12T17:18:06.908Z,32.43
2018-05-12T17:20:34.371Z,32.02
2018-05-12T17:23:01.817Z,31.97
2018-05-12T17:25:29.258Z,31.71
2018-05-12T17:27:56.696Z,31.22
2018-05-12T17:30:24.141Z,30.81
2018-05-12T17:32:51.608Z,30.03
2018-05-12T17:35:19.071Z,29.75
2018-05-12T17:37:46.579Z,29.39
2018-05-12T17:40:13.972Z,29.02
2018-05-12T17:42:41.425Z,28.41
2018-05-12T17:45:08.859Z,28.27
2018-05-12T17:47:36.292Z,28.17
2018-05-12T17:50:03.777Z,27.74
2018-05-12T17:52:31.190Z,27.73
2018-05-12T17:54:58.643Z,27.41
2018-05-12T17:57:26.083Z,27.11
2018-05-12T17:59:53.558Z,27.18
2018-05-12T18:02:21.003Z,27.03
2018-05-12T18:04:48.443Z,26.77
2018-05-12T18:07:15.880Z,26.76
2018-05-12T18:09:43.346Z,26.51
2018-05-12T18:12:10.801Z,26.41
2018-05-12T18:14:38.365Z,26.17
2018-05-12T18:17:06.336Z,26.13
2018-05-12T18:19:33.768Z,25.89
2018-05-12T18:22:01.207Z,25.65
2018-05-12T18:24:28.654Z,25.48
2018-05-12T18:26:56.096Z,25.39
2018-05-12T18:29:23.545Z,25.14
2018-05-12T18:31:51.095Z,25.10
2018-05-12T18:34:18.500Z,25.04
2018-05-12T18:36:45.943Z,24.88
2018-05-12T18:39:13.395Z,24.74
2018-05-12T18:41:40.838Z,24.59
2018-05-12T18:44:08.341Z,24.48
2018-05-12T18:46:35.769Z,24.36
2018-05-12T18:49:03.251Z,24.26
2018-05-12T18:51:30.720Z,24.04
2018-05-12T18:53:58.157Z,23.97
2018-05-12T18:56:25.591Z,23.87
2018-05-12T18:58:53.042Z,23.68
2018-05-12T19:01:20.493Z,23.71
2018-05-12T19:03:47.934Z,23.55
2018-05-12T19:06:15.373Z,23.44
2018-05-12T19:08:42.808Z,23.38
2018-05-12T19:11:10.247Z,23.31
2018-05-12T19:13:37.684Z,23.32
2018-05-12T19:16:05.133Z,23.20
2018-05-12T19:18:32.570Z,23.11
2018-05-12T19:21:00.003Z,23.03
2018-05-12T19:23:27.492Z,22.98
2018-05-12T19:25:54.933Z,22.79
2018-05-12T19:28:22.369Z,22.54
2018-05-12T19:30:49.828Z,22.40
2018-05-12T19:33:17.269Z,22.26
2018-05-12T19:35:44.715Z,22.18
2018-05-12T19:38:12.150Z,22.17
2018-05-12T19:40:39.597Z,22.04
2018-05-12T19:43:07.055Z,21.93
2018-05-12T19:45:34.497Z,21.87
2018-05-12T19:48:01.932Z,21.81
2018-05-12T19:50:29.390Z,21.71
2018-05-12T19:52:56.834Z,21.65
2018-05-12T19:55:24.294Z,21.67
2018-05-12T19:57:51.757Z,21.67
2018-05-12T20:00:19.240Z,21.64
2018-05-12T20:02:46.676Z,21.55
2018-05-12T20:05:14.114Z,21.55
2018-05-12T20:07:41.553Z,21.60
2018-05-12T20:10:08.988Z,21.72
2018-05-12T20:12:36.444Z,21.78
2018-05-12T20:15:03.876Z,21.84
2018-05-12T20:17:31.326Z,21.70
2018-05-12T20:19:58.773Z,21.89
2018-05-12T20:22:26.322Z,21.97
2018-05-12T20:24:53.834Z,21.77
2018-05-12T20:27:21.318Z,21.80
2018-05-12T20:29:49.745Z,21.64
2018-05-12T20:32:17.207Z,21.66
2018-05-12T20:34:44.665Z,21.66
2018-05-12T20:37:12.191Z,21.61
2018-05-12T20:39:39.562Z,21.48
2018-05-12T20:42:07.200Z,21.37
2018-05-12T20:44:34.654Z,21.24
2018-05-12T20:47:02.128Z,21.16
2018-05-12T20:49:29.581Z,20.95
2018-05-12T20:51:57.074Z,20.84
2018-05-12T20:54:24.510Z,20.79
2018-05-12T20:56:51.984Z,20.75
2018-05-12T20:59:19.478Z,20.60
2018-05-12T21:01:46.925Z,20.66
2018-05-12T21:04:14.408Z,20.46
2018-05-12T21:06:41.871Z,20.50
2018-05-12T21:09:09.323Z,20.65
2018-05-12T21:11:36.765Z,20.65
2018-05-12T21:14:04.207Z,20.53
2018-05-12T21:16:31.653Z,20.64
2018-05-12T21:18:59.094Z,20.51
2018-05-12T21:21:26.555Z,20.60
2018-05-12T21:23:54.103Z,20.48
2018-05-12T21:26:21.535Z,20.58
2018-05-12T21:28:48.978Z,20.57
2018-05-12T21:31:16.456Z,20.48
2018-05-12T21:33:43.920Z,20.60
2018-05-12T21:36:11.382Z,20.44
2018-05-12T21:38:38.921Z,20.29
2018-05-12T21:41:06.395Z,20.11
2018-05-12T21:43:33.846Z,19.99
2018-05-12T21:46:01.320Z,19.99
2018-05-12T21:48:28.771Z,20.00
2018-05-12T21:50:56.216Z,20.19
2018-05-12T21:53:23.686Z,20.01
2018-05-12T21:55:51.163Z,20.03
2018-05-12T21:58:18.705Z,20.13
2018-05-12T22:00:46.175Z,20.13
2018-05-12T22:03:13.667Z,20.04
2018-05-12T22:05:41.166Z,20.06
2018-05-12T22:08:09.307Z,20.07
2018-05-12T22:10:36.755Z,19.93
2018-05-12T22:13:04.233Z,20.03
2018-05-12T22:15:31.702Z,20.02
2018-05-12T22:17:59.187Z,19.89
2018-05-12T22:20:26.621Z,19.92
2018-05-12T22:22:54.098Z,19.82
2018-05-12T22:25:21.910Z,19.86
2018-05-12T22:27:49.357Z,19.81
2018-05-12T22:30:16.883Z,19.93
2018-05-12T22:32:44.328Z,19.74
2018-05-12T22:35:11.785Z,19.78
2018-05-12T22:37:39.276Z,19.84
2018-05-12T22:40:06.746Z,19.87
2018-05-12T22:42:34.191Z,19.85
2018-05-12T22:45:01.691Z,19.81
2018-05-12T22:47:29.236Z,19.76
2018-05-12T22:49:56.674Z,19.73
2018-05-12T22:52:24.212Z,19.83
2018-05-12T22:54:52.029Z,19.49
2018-05-12T22:57:19.512Z,19.49
2018-05-12T22:59:47.011Z,19.49
2018-05-12T23:02:14.569Z,19.54
2018-05-12T23:04:42.066Z,19.51
2018-05-12T23:07:09.497Z,19.57
2018-05-12T23:09:37.053Z,19.59
2018-05-12T23:12:04.517Z,19.61
2018-05-12T23:14:32.078Z,19.33
2018-05-12T23:16:59.560Z,19.18
2018-05-12T23:19:27.017Z,18.90
2018-05-12T23:21:54.503Z,18.90
2018-05-12T23:24:21.966Z,18.96
2018-05-12T23:26:49.449Z,18.77
2018-05-12T23:29:16.962Z,18.62
2018-05-12T23:31:44.501Z,18.52
2018-05-12T23:34:12.059Z,18.31
2018-05-12T23:36:39.501Z,18.53
2018-05-12T23:39:07.195Z,18.28
2018-05-12T23:41:34.717Z,18.14
2018-05-12T23:44:02.207Z,18.07
2018-05-12T23:46:29.770Z,17.95
2018-05-12T23:48:57.278Z,17.91
2018-05-12T23:51:24.936Z,18.27
2018-05-12T23:53:52.323Z,18.53
2018-05-12T23:56:19.792Z,18.56
2018-05-12T23:58:47.273Z,18.60
